Time;durP1;ratioP1;P1;durP2;ratioP2;P2;SDS_P1;SDS_P2;PMS_P1;PMS_P2;Temp;Humidity;BMP_temperature;BMP_pressure;BME280_temperature;BME280_humidity;BME280_pressure;Samples;Min_cycle;Max_cycle;Signal;HPM_P1;HPM_P2
2023/11/27 00:00:29;;;;;;;18.00;9.52;;;6.50;99.90;;;;;;5046989;28;20017;-53
2023/11/27 00:02:54;;;;;;;23.77;9.48;;;6.60;99.90;;;;;;5047541;28;20064;-50
2023/11/27 00:05:21;;;;;;;17.13;9.25;;;6.60;99.90;;;;;;5047867;28;20025;-52
2023/11/27 00:07:47;;;;;;;17.05;9.00;;;6.60;99.90;;;;;;5047557;28;20267;-58
2023/11/27 00:10:13;;;;;;;19.92;9.02;;;6.60;99.90;;;;;;5047815;28;20027;-62
2023/11/27 00:12:39;;;;;;;15.32;9.20;;;6.60;99.90;;;;;;5047624;28;20022;-63
2023/11/27 00:15:05;;;;;;;20.10;8.77;;;6.50;99.90;;;;;;5047869;28;20471;-50
2023/11/27 00:17:31;;;;;;;19.50;9.10;;;6.50;99.90;;;;;;5047050;28;20040;-49
2023/11/27 00:19:56;;;;;;;21.00;9.02;;;6.50;99.90;;;;;;5046589;28;20052;-48
2023/11/27 00:22:23;;;;;;;19.33;9.20;;;6.50;99.90;;;;;;5041797;28;20029;-54
2023/11/27 00:24:48;;;;;;;19.23;10.25;;;6.40;99.90;;;;;;5032641;28;20029;-48
2023/11/27 00:27:14;;;;;;;15.35;8.93;;;6.50;99.90;;;;;;5046696;28;20022;-51
2023/11/27 00:29:40;;;;;;;18.52;8.80;;;6.50;99.90;;;;;;5046416;28;20018;-53
2023/11/27 00:32:06;;;;;;;22.08;8.73;;;6.50;99.90;;;;;;5046918;28;20025;-52
2023/11/27 00:34:32;;;;;;;16.10;9.07;;;6.50;99.90;;;;;;5046366;28;20017;-51
2023/11/27 00:36:58;;;;;;;15.32;8.63;;;6.50;99.90;;;;;;5046986;28;20029;-50
2023/11/27 00:39:24;;;;;;;14.15;8.25;;;6.50;99.90;;;;;;5047201;28;20026;-52
2023/11/27 00:41:50;;;;;;;16.70;9.27;;;6.50;99.90;;;;;;5047400;28;20025;-49
2023/11/27 00:44:15;;;;;;;16.98;9.40;;;6.50;99.90;;;;;;5046722;28;20109;-52
2023/11/27 00:46:41;;;;;;;20.92;10.10;;;6.50;99.90;;;;;;5046680;28;20083;-48
2023/11/27 00:49:07;;;;;;;18.77;8.95;;;6.50;99.90;;;;;;5047155;28;20030;-50
2023/11/27 00:51:33;;;;;;;17.92;9.07;;;6.50;99.90;;;;;;5046742;28;20423;-49
2023/11/27 00:53:58;;;;;;;16.02;9.13;;;6.50;99.90;;;;;;5046761;28;20017;-56
2023/11/27 00:56:24;;;;;;;17.30;8.73;;;6.50;99.90;;;;;;5047196;28;20153;-47
2023/11/27 00:58:51;;;;;;;18.70;8.00;;;6.40;99.90;;;;;;5046996;28;20109;-49
2023/11/27 01:01:17;;;;;;;17.25;9.68;;;6.40;99.90;;;;;;5046433;28;20040;-51
2023/11/27 01:03:42;;;;;;;20.65;9.30;;;6.40;99.90;;;;;;5046549;28;20029;-48
2023/11/27 01:06:13;;;;;;;22.48;10.05;;;6.40;99.90;;;;;;5046950;28;20030;-52
2023/11/27 01:08:40;;;;;;;14.50;8.27;;;6.40;99.90;;;;;;5046850;28;20472;-47
2023/11/27 01:11:06;;;;;;;15.38;8.57;;;6.40;99.90;;;;;;5046843;28;20097;-46
2023/11/27 01:13:31;;;;;;;20.50;9.38;;;6.40;99.90;;;;;;5046863;28;20030;-48
2023/11/27 01:15:57;;;;;;;21.48;8.88;;;6.30;99.90;;;;;;5046158;28;20059;-37
2023/11/27 01:18:23;;;;;;;14.60;8.55;;;6.40;99.90;;;;;;5046601;28;20049;-36
2023/11/27 01:20:50;;;;;;;18.98;7.88;;;6.40;99.90;;;;;;5046488;28;20049;-35
2023/11/27 01:23:15;;;;;;;14.13;7.65;;;6.40;99.90;;;;;;5046107;28;20025;-37
2023/11/27 01:25:41;;;;;;;13.88;8.18;;;6.30;99.90;;;;;;5046442;28;20051;-37
2023/11/27 01:28:08;;;;;;;12.60;8.00;;;6.30;99.90;;;;;;5046527;28;20036;-38
2023/11/27 01:30:34;;;;;;;11.52;7.47;;;6.30;99.90;;;;;;5046614;28;20017;-36
2023/11/27 01:32:59;;;;;;;23.05;6.95;;;6.20;99.90;;;;;;5046038;28;20036;-36
2023/11/27 01:35:25;;;;;;;15.80;7.53;;;6.20;99.90;;;;;;5046140;28;20092;-36
2023/11/27 01:37:50;;;;;;;12.43;6.72;;;6.20;99.90;;;;;;5045348;28;20045;-40
2023/11/27 01:40:16;;;;;;;14.75;6.78;;;6.20;99.90;;;;;;5044593;28;20080;-35
2023/11/27 01:42:43;;;;;;;15.23;5.70;;;6.20;99.90;;;;;;5044511;28;20084;-36
2023/11/27 01:45:09;;;;;;;12.48;6.20;;;6.20;99.90;;;;;;5045940;28;20025;-39
2023/11/27 01:47:34;;;;;;;10.70;5.78;;;6.20;99.90;;;;;;5045209;28;20391;-35
2023/11/27 01:50:00;;;;;;;10.18;5.70;;;6.20;99.90;;;;;;5045674;28;20052;-37
2023/11/27 01:52:27;;;;;;;14.95;6.32;;;6.10;99.90;;;;;;5045911;28;20017;-36
2023/11/27 01:54:55;;;;;;;16.67;5.55;;;6.10;99.90;;;;;;5045472;28;20472;-37
2023/11/27 01:57:22;;;;;;;11.82;5.82;;;6.10;99.90;;;;;;5026301;28;20036;-38
2023/11/27 01:59:51;;;;;;;11.70;4.95;;;6.10;99.90;;;;;;5026479;28;20492;-38
2023/11/27 02:02:17;;;;;;;10.63;5.95;;;6.10;99.90;;;;;;5034016;28;20028;-38
2023/11/27 02:04:43;;;;;;;14.43;5.82;;;6.10;99.90;;;;;;5044596;28;20029;-39
2023/11/27 02:07:10;;;;;;;11.30;5.93;;;6.10;99.90;;;;;;5044040;28;20048;-36
2023/11/27 02:09:36;;;;;;;9.23;5.45;;;6.10;99.90;;;;;;5045700;28;20018;-36
2023/11/27 02:12:02;;;;;;;20.00;5.00;;;6.10;99.90;;;;;;5044823;28;20060;-37
2023/11/27 02:14:27;;;;;;;9.35;5.30;;;6.10;99.90;;;;;;5045277;28;20034;-37
2023/11/27 02:16:53;;;;;;;11.63;5.82;;;6.00;99.90;;;;;;5045022;28;20026;-37
2023/11/27 02:19:19;;;;;;;9.95;4.82;;;6.00;99.90;;;;;;5045810;28;20105;-37
2023/11/27 02:21:45;;;;;;;25.42;5.63;;;6.10;99.90;;;;;;5043824;28;20029;-37
2023/11/27 02:24:11;;;;;;;11.93;5.10;;;6.10;99.90;;;;;;5045415;28;20030;-37
2023/11/27 02:26:37;;;;;;;11.15;5.07;;;6.00;99.90;;;;;;5045784;28;20057;-35
2023/11/27 02:29:03;;;;;;;12.25;5.05;;;6.00;99.90;;;;;;5045713;28;20022;-37
2023/11/27 02:31:29;;;;;;;12.77;5.07;;;6.00;99.90;;;;;;5045593;28;20021;-37
2023/11/27 02:33:55;;;;;;;8.10;4.90;;;6.00;99.90;;;;;;5044433;28;20049;-36
2023/11/27 02:36:21;;;;;;;10.50;5.25;;;6.00;99.90;;;;;;5045577;28;20029;-39
2023/11/27 02:38:47;;;;;;;9.15;4.53;;;6.00;99.90;;;;;;5044609;28;20021;-37
2023/11/27 02:41:12;;;;;;;5.60;4.03;;;6.00;99.90;;;;;;5043810;28;20029;-35
2023/11/27 02:43:38;;;;;;;8.95;4.80;;;5.90;99.90;;;;;;5045600;28;20456;-36
2023/11/27 02:46:05;;;;;;;10.07;4.45;;;5.90;99.90;;;;;;5045561;28;20026;-37
2023/11/27 02:48:30;;;;;;;9.02;4.13;;;5.80;99.90;;;;;;5044056;28;20026;-36
2023/11/27 02:50:56;;;;;;;8.00;4.32;;;5.80;99.90;;;;;;5045349;28;20033;-36
2023/11/27 02:53:22;;;;;;;8.13;4.05;;;5.90;99.90;;;;;;5045060;28;20464;-37
2023/11/27 02:55:47;;;;;;;8.80;4.57;;;5.80;99.90;;;;;;5045327;28;20085;-38
2023/11/27 02:58:13;;;;;;;9.75;4.90;;;5.80;99.90;;;;;;5045028;28;20029;-39
2023/11/27 03:00:39;;;;;;;9.02;4.20;;;5.70;99.90;;;;;;5045167;28;20021;-35
2023/11/27 03:03:04;;;;;;;8.00;3.97;;;5.70;99.90;;;;;;5045102;28;20032;-37
2023/11/27 03:05:30;;;;;;;12.43;4.32;;;5.70;99.90;;;;;;5045278;28;20391;-45
2023/11/27 03:07:56;;;;;;;7.63;3.83;;;5.80;99.90;;;;;;5045020;28;20025;-40
2023/11/27 03:10:22;;;;;;;8.80;4.13;;;5.80;99.90;;;;;;5045245;28;20052;-37
2023/11/27 03:12:48;;;;;;;10.05;4.03;;;5.80;99.90;;;;;;5044477;28;20372;-36
2023/11/27 03:15:13;;;;;;;7.65;4.32;;;5.80;99.90;;;;;;5043742;28;20025;-37
2023/11/27 03:17:39;;;;;;;10.95;4.75;;;5.80;99.90;;;;;;5044322;28;20026;-38
2023/11/27 03:20:05;;;;;;;12.30;4.65;;;5.80;99.90;;;;;;5025540;28;20034;-39
2023/11/27 03:22:31;;;;;;;10.95;4.45;;;5.80;99.90;;;;;;5032860;28;20018;-37
2023/11/27 03:24:57;;;;;;;11.60;5.10;;;5.80;99.90;;;;;;5044923;28;20033;-38
2023/11/27 03:27:23;;;;;;;8.30;4.95;;;5.70;99.90;;;;;;5045156;28;20026;-37
2023/11/27 03:29:49;;;;;;;14.30;5.13;;;5.70;99.90;;;;;;5045275;28;20029;-36
2023/11/27 03:32:14;;;;;;;7.93;4.78;;;5.70;99.90;;;;;;5044391;28;20010;-38
2023/11/27 03:34:41;;;;;;;9.45;5.03;;;5.70;99.90;;;;;;5048386;28;20025;-37
2023/11/27 03:37:06;;;;;;;10.35;5.95;;;5.70;99.90;;;;;;5048418;28;20032;-35
2023/11/27 03:39:32;;;;;;;9.10;5.40;;;5.70;99.90;;;;;;5048703;28;20029;-38
2023/11/27 03:41:58;;;;;;;7.03;4.95;;;5.60;99.90;;;;;;5046976;28;20025;-37
2023/11/27 03:44:23;;;;;;;8.25;4.88;;;5.60;99.90;;;;;;5028775;28;20026;-36
2023/11/27 03:46:49;;;;;;;7.75;4.90;;;5.60;99.90;;;;;;5028591;28;20376;-37
2023/11/27 03:49:15;;;;;;;7.43;4.80;;;5.60;99.90;;;;;;5046631;28;20022;-55
2023/11/27 03:51:40;;;;;;;16.05;5.45;;;5.60;99.90;;;;;;5047928;28;20025;-38
2023/11/27 03:54:11;;;;;;;7.97;5.07;;;5.60;99.90;;;;;;5047770;28;20025;-35
2023/11/27 03:56:37;;;;;;;6.13;4.50;;;5.60;99.90;;;;;;5047863;28;20382;-48
2023/11/27 03:59:02;;;;;;;9.00;4.75;;;5.50;99.90;;;;;;5047899;28;20029;-49
2023/11/27 04:01:28;;;;;;;11.82;4.47;;;5.60;99.90;;;;;;5047894;28;20021;-49
2023/11/27 04:03:53;;;;;;;6.93;4.60;;;5.60;99.90;;;;;;5047824;28;20096;-44
2023/11/27 04:06:24;;;;;;;7.13;4.20;;;5.60;99.90;;;;;;5047691;28;20032;-47
2023/11/27 04:08:50;;;;;;;6.88;4.28;;;5.60;99.90;;;;;;5047690;28;20030;-49
2023/11/27 04:11:16;;;;;;;5.47;4.10;;;5.60;99.90;;;;;;5047867;28;20029;-47
2023/11/27 04:13:41;;;;;;;8.15;4.53;;;5.60;99.90;;;;;;5047570;28;20076;-48
2023/11/27 04:16:11;;;;;;;6.43;4.35;;;5.70;99.90;;;;;;5047792;28;20025;-47
2023/11/27 04:18:36;;;;;;;7.10;4.13;;;5.70;99.90;;;;;;5047104;28;20520;-47
2023/11/27 04:21:02;;;;;;;6.72;4.25;;;5.70;99.90;;;;;;5046914;28;20087;-46
2023/11/27 04:23:28;;;;;;;5.72;3.90;;;5.70;99.90;;;;;;5047446;28;20033;-51
2023/11/27 04:25:54;;;;;;;8.23;4.20;;;5.70;99.90;;;;;;5046370;28;20018;-50
2023/11/27 04:28:19;;;;;;;10.73;4.78;;;5.60;99.90;;;;;;5047537;28;20021;-43
2023/11/27 04:30:46;;;;;;;6.93;4.20;;;5.60;99.90;;;;;;5047135;28;20077;-49
2023/11/27 04:33:14;;;;;;;6.32;4.22;;;5.70;99.90;;;;;;5047153;28;20077;-47
2023/11/27 04:35:41;;;;;;;7.10;4.70;;;5.70;99.90;;;;;;5047791;28;20025;-47
2023/11/27 04:38:07;;;;;;;8.52;3.95;;;5.60;99.90;;;;;;5047096;28;20033;-46
2023/11/27 04:40:34;;;;;;;5.90;3.20;;;5.60;99.90;;;;;;5047358;28;20021;-45
2023/11/27 04:43:00;;;;;;;4.55;3.78;;;5.60;99.90;;;;;;5047530;28;20028;-47
2023/11/27 04:45:25;;;;;;;4.50;3.00;;;5.60;99.90;;;;;;5047141;28;20399;-47
2023/11/27 04:47:51;;;;;;;9.85;4.40;;;5.60;99.90;;;;;;5046645;28;20049;-44
2023/11/27 04:50:17;;;;;;;2.88;2.60;;;5.50;99.90;;;;;;5027602;28;20052;-47
2023/11/27 04:52:43;;;;;;;6.68;3.33;;;5.50;99.90;;;;;;5035771;28;20076;-48
2023/11/27 04:55:10;;;;;;;7.95;3.88;;;5.50;99.90;;;;;;5047167;28;20101;-47
2023/11/27 04:57:37;;;;;;;5.78;3.70;;;5.40;99.90;;;;;;5047091;28;20081;-47
2023/11/27 05:00:03;;;;;;;4.55;3.58;;;5.40;99.90;;;;;;5046856;28;20506;-49
2023/11/27 05:02:28;;;;;;;6.25;3.65;;;5.40;99.90;;;;;;5046793;28;20029;-48
2023/11/27 05:04:54;;;;;;;5.28;3.40;;;5.30;99.90;;;;;;5046771;28;20081;-49
2023/11/27 05:07:20;;;;;;;5.63;3.67;;;5.40;99.90;;;;;;5046729;28;20025;-50
2023/11/27 05:09:46;;;;;;;5.45;3.35;;;5.40;99.90;;;;;;5046700;28;20032;-48
2023/11/27 05:12:12;;;;;;;4.18;3.13;;;5.30;99.90;;;;;;5046564;28;20017;-50
2023/11/27 05:14:37;;;;;;;5.63;3.20;;;5.40;99.90;;;;;;5046435;28;20033;-45
2023/11/27 05:17:03;;;;;;;5.63;3.70;;;5.40;99.90;;;;;;5046759;28;20033;-37
2023/11/27 05:19:30;;;;;;;6.38;3.58;;;5.40;99.90;;;;;;5046444;28;20045;-59
2023/11/27 05:21:56;;;;;;;3.90;2.80;;;5.40;99.90;;;;;;5046232;28;20471;-38
2023/11/27 05:24:23;;;;;;;4.28;2.92;;;5.40;99.90;;;;;;5044938;28;20032;-37
2023/11/27 05:26:48;;;;;;;9.00;3.55;;;5.40;99.90;;;;;;5046599;28;20107;-37
2023/11/27 05:29:14;;;;;;;5.18;2.92;;;5.40;99.90;;;;;;5046282;28;20030;-37
2023/11/27 05:31:40;;;;;;;4.07;3.03;;;5.40;99.90;;;;;;5046545;28;20529;-38
2023/11/27 05:34:07;;;;;;;7.00;3.13;;;5.40;99.90;;;;;;5046154;28;20025;-37
2023/11/27 05:36:33;;;;;;;7.32;3.10;;;5.40;99.90;;;;;;5047260;28;20021;-37
2023/11/27 05:38:59;;;;;;;7.57;2.88;;;5.40;99.90;;;;;;5045936;28;20094;-38
2023/11/27 05:41:25;;;;;;;3.88;2.60;;;5.40;99.90;;;;;;5046535;28;20017;-40
2023/11/27 05:43:51;;;;;;;2.63;2.30;;;5.40;99.90;;;;;;5046150;28;20029;-39
2023/11/27 05:46:18;;;;;;;4.38;2.50;;;5.40;99.90;;;;;;5045737;28;20029;-40
2023/11/27 05:48:44;;;;;;;3.28;2.35;;;5.40;99.90;;;;;;5045710;28;20400;-36
2023/11/27 05:51:09;;;;;;;2.95;2.15;;;5.40;99.90;;;;;;5046558;28;20013;-38
2023/11/27 05:53:35;;;;;;;3.28;2.45;;;5.50;99.90;;;;;;5045625;28;20086;-39
2023/11/27 05:56:02;;;;;;;3.78;2.35;;;5.50;99.90;;;;;;5044949;28;20079;-39
2023/11/27 05:58:28;;;;;;;2.70;2.05;;;5.50;99.90;;;;;;5045009;28;20480;-40
2023/11/27 06:00:55;;;;;;;2.53;2.10;;;5.50;99.90;;;;;;5046034;28;20033;-38
2023/11/27 06:03:21;;;;;;;2.13;1.80;;;5.50;99.90;;;;;;5045423;28;20033;-39
2023/11/27 06:05:47;;;;;;;3.92;1.85;;;5.50;99.90;;;;;;5045491;28;20266;-39
2023/11/27 06:08:14;;;;;;;2.78;2.03;;;5.50;99.90;;;;;;5045361;28;20056;-50
2023/11/27 06:10:39;;;;;;;5.30;2.10;;;5.50;99.90;;;;;;5044333;28;20431;-38
2023/11/27 06:13:05;;;;;;;2.00;1.80;;;5.40;99.90;;;;;;5042546;28;20067;-38
2023/11/27 06:15:31;;;;;;;3.35;1.73;;;5.40;99.90;;;;;;5045416;28;20060;-39
2023/11/27 06:17:57;;;;;;;3.75;2.33;;;5.40;99.90;;;;;;5040115;28;20049;-40
2023/11/27 06:20:22;;;;;;;1.90;1.67;;;5.40;99.90;;;;;;5039921;28;20040;-38
2023/11/27 06:22:48;;;;;;;2.47;2.03;;;5.40;99.90;;;;;;5046073;28;20013;-37
2023/11/27 06:25:14;;;;;;;5.50;2.17;;;5.30;99.90;;;;;;5043892;28;20021;-39
2023/11/27 06:27:39;;;;;;;3.60;2.10;;;5.30;99.90;;;;;;5044614;28;20104;-37
2023/11/27 06:30:06;;;;;;;3.10;2.40;;;5.30;99.90;;;;;;5044834;28;20056;-38
2023/11/27 06:32:31;;;;;;;2.40;2.20;;;5.30;99.90;;;;;;5044768;28;20067;-37
2023/11/27 06:34:57;;;;;;;3.28;2.42;;;5.30;99.90;;;;;;5041750;28;20045;-38
2023/11/27 06:37:22;;;;;;;4.60;2.78;;;5.30;99.90;;;;;;5044546;28;20504;-37
2023/11/27 06:39:48;;;;;;;3.05;2.60;;;5.30;99.90;;;;;;5041839;28;20029;-45
2023/11/27 06:42:14;;;;;;;3.40;2.15;;;5.30;99.90;;;;;;5045185;28;20043;-38
2023/11/27 06:44:41;;;;;;;2.53;2.25;;;5.30;99.90;;;;;;5045321;28;20029;-38
2023/11/27 06:47:07;;;;;;;3.17;2.60;;;5.40;99.90;;;;;;5045070;28;20034;-39
2023/11/27 06:49:33;;;;;;;3.60;2.30;;;5.40;99.90;;;;;;5044941;28;20475;-42
2023/11/27 06:52:00;;;;;;;5.65;3.17;;;5.30;99.90;;;;;;5045242;28;20049;-46
2023/11/27 06:54:25;;;;;;;2.58;2.25;;;5.40;99.90;;;;;;5044097;28;20104;-38
2023/11/27 06:56:52;;;;;;;3.85;2.60;;;5.40;99.90;;;;;;5045111;28;20032;-38
2023/11/27 06:59:21;;;;;;;4.00;2.97;;;5.40;99.90;;;;;;5045007;28;20036;-39
2023/11/27 07:01:47;;;;;;;2.88;2.65;;;5.40;99.90;;;;;;5045350;28;20037;-39
2023/11/27 07:04:12;;;;;;;3.92;2.80;;;5.40;99.90;;;;;;5044905;28;20033;-39
2023/11/27 07:06:39;;;;;;;4.22;2.78;;;5.40;99.90;;;;;;5045566;28;20032;-39
2023/11/27 07:09:05;;;;;;;5.70;3.85;;;5.40;99.90;;;;;;5048778;28;20017;-41
2023/11/27 07:11:35;;;;;;;3.70;2.75;;;5.40;99.90;;;;;;5049006;28;20044;-38
2023/11/27 07:14:01;;;;;;;3.00;2.63;;;5.40;99.90;;;;;;5049076;28;20391;-38
2023/11/27 07:16:28;;;;;;;12.40;2.60;;;5.50;99.90;;;;;;5049046;28;20022;-38
2023/11/27 07:18:57;;;;;;;3.08;2.47;;;5.50;99.90;;;;;;5048593;28;20470;-38
2023/11/27 07:21:25;;;;;;;4.18;2.67;;;5.40;99.90;;;;;;5049003;28;20025;-38
2023/11/27 07:23:53;;;;;;;4.35;2.55;;;5.40;99.90;;;;;;5048765;28;20032;-39
2023/11/27 07:26:24;;;;;;;7.90;2.95;;;5.40;99.90;;;;;;5047117;28;20037;-38
2023/11/27 07:28:50;;;;;;;3.38;3.05;;;5.40;99.90;;;;;;5048364;28;20030;-40
2023/11/27 07:31:18;;;;;;;3.95;3.30;;;5.50;99.90;;;;;;5047601;28;20032;-38
2023/11/27 07:33:46;;;;;;;3.60;2.92;;;5.50;99.90;;;;;;5048274;28;20104;-42
2023/11/27 07:36:12;;;;;;;6.60;3.10;;;5.40;99.90;;;;;;5048774;28;20051;-39
2023/11/27 07:38:40;;;;;;;3.03;2.72;;;5.50;99.90;;;;;;5048302;28;20060;-42
2023/11/27 07:41:06;;;;;;;6.22;2.88;;;5.50;99.90;;;;;;5048695;28;20072;-39
2023/11/27 07:43:33;;;;;;;4.10;3.13;;;5.50;99.90;;;;;;5048432;28;20024;-42
2023/11/27 07:45:59;;;;;;;6.60;3.30;;;5.50;99.90;;;;;;5048322;28;20028;-39
2023/11/27 07:48:24;;;;;;;4.05;3.10;;;5.50;99.90;;;;;;5048352;28;20093;-39
2023/11/27 07:50:52;;;;;;;4.38;3.05;;;5.50;99.90;;;;;;5049119;28;20022;-50
2023/11/27 07:53:19;;;;;;;6.15;3.55;;;5.50;99.90;;;;;;5047879;28;20033;-52
2023/11/27 07:55:46;;;;;;;6.43;2.92;;;5.40;99.90;;;;;;5047918;28;20467;-54
2023/11/27 07:58:14;;;;;;;4.03;2.70;;;5.40;99.90;;;;;;5047825;28;20029;-50
2023/11/27 08:00:40;;;;;;;4.15;3.00;;;5.50;99.90;;;;;;5048469;28;20025;-53
2023/11/27 08:03:06;;;;;;;4.03;3.25;;;5.50;99.90;;;;;;5047256;28;20030;-52
2023/11/27 08:05:32;;;;;;;6.82;2.88;;;5.50;99.90;;;;;;5048045;28;20026;-53
2023/11/27 08:07:58;;;;;;;4.97;3.35;;;5.50;99.90;;;;;;5047844;28;20521;-53
2023/11/27 08:10:24;;;;;;;13.07;3.30;;;5.50;99.90;;;;;;5047964;28;20488;-51
2023/11/27 08:12:50;;;;;;;20.10;4.05;;;5.50;99.90;;;;;;5046948;28;20022;-50
2023/11/27 08:15:19;;;;;;;4.05;3.28;;;5.50;99.90;;;;;;5048168;28;20392;-49
2023/11/27 08:17:50;;;;;;;3.92;3.20;;;5.60;99.90;;;;;;5046492;28;20049;-48
2023/11/27 08:20:16;;;;;;;3.47;3.05;;;5.60;99.90;;;;;;5046963;28;20037;-50
2023/11/27 08:22:42;;;;;;;3.47;2.63;;;5.60;99.90;;;;;;5047395;28;20080;-51
2023/11/27 08:25:10;;;;;;;6.60;3.50;;;5.50;99.90;;;;;;5047705;28;20109;-53
2023/11/27 08:27:38;;;;;;;4.47;2.72;;;5.50;99.90;;;;;;5047514;28;20025;-49
2023/11/27 08:30:06;;;;;;;3.45;2.42;;;5.50;99.90;;;;;;5047672;28;20026;-52
2023/11/27 08:32:32;;;;;;;4.22;2.88;;;5.60;99.90;;;;;;5047045;28;20017;-56
2023/11/27 08:34:58;;;;;;;4.25;3.13;;;5.60;99.90;;;;;;5047713;28;20026;-51
2023/11/27 08:37:24;;;;;;;3.00;2.58;;;5.60;99.90;;;;;;5047520;28;20025;-53
2023/11/27 08:39:50;;;;;;;3.58;2.67;;;5.60;99.90;;;;;;5047633;28;20123;-53
2023/11/27 08:42:16;;;;;;;7.90;2.97;;;5.60;99.90;;;;;;5047283;28;20025;-51
2023/11/27 08:44:42;;;;;;;3.58;2.92;;;5.60;99.90;;;;;;5047617;28;20032;-50
2023/11/27 08:47:07;;;;;;;3.80;3.20;;;5.60;99.90;;;;;;5047221;28;20109;-50
2023/11/27 08:49:33;;;;;;;5.70;3.47;;;5.70;99.90;;;;;;5047438;28;20073;-45
2023/11/27 08:51:59;;;;;;;4.90;3.20;;;5.70;99.90;;;;;;5047078;28;20120;-51
2023/11/27 08:54:32;;;;;;;3.63;3.00;;;5.70;99.90;;;;;;5047313;28;20025;-46
2023/11/27 08:56:58;;;;;;;3.72;3.15;;;5.70;99.90;;;;;;5047073;28;20029;-52
2023/11/27 08:59:25;;;;;;;4.28;3.40;;;5.60;99.90;;;;;;5047224;28;20033;-51
2023/11/27 09:01:51;;;;;;;4.40;3.33;;;5.60;99.90;;;;;;5045681;28;20060;-52
2023/11/27 09:04:18;;;;;;;4.40;3.20;;;5.70;99.90;;;;;;5046787;28;20040;-52
2023/11/27 09:06:44;;;;;;;4.07;2.97;;;5.70;99.90;;;;;;5046446;28;20017;-46
2023/11/27 09:09:11;;;;;;;4.53;2.63;;;5.80;99.90;;;;;;5047021;28;20025;-51
2023/11/27 09:11:37;;;;;;;3.15;2.58;;;5.80;99.90;;;;;;5047043;28;20029;-48
2023/11/27 09:14:03;;;;;;;4.72;3.08;;;5.80;99.90;;;;;;5046471;28;20446;-51
2023/11/27 09:16:29;;;;;;;6.55;3.13;;;5.80;99.90;;;;;;5046700;28;20029;-47
2023/11/27 09:18:54;;;;;;;4.88;3.10;;;5.80;99.90;;;;;;5046596;28;20064;-49
2023/11/27 09:21:20;;;;;;;4.05;3.25;;;5.80;99.90;;;;;;5046421;28;20034;-52
2023/11/27 09:23:45;;;;;;;11.63;3.35;;;5.90;99.90;;;;;;5046685;28;20037;-53
2023/11/27 09:26:14;;;;;;;4.40;2.78;;;5.90;99.90;;;;;;5046693;28;20039;-49
2023/11/27 09:28:39;;;;;;;4.28;2.53;;;5.80;99.90;;;;;;5046616;28;20021;-50
2023/11/27 09:31:05;;;;;;;3.97;3.10;;;5.90;99.90;;;;;;5045578;28;20018;-45
2023/11/27 09:33:32;;;;;;;5.15;3.15;;;5.90;99.90;;;;;;5046326;28;20488;-50
2023/11/27 09:35:58;;;;;;;6.07;3.67;;;5.90;99.90;;;;;;5046494;28;20033;-46
2023/11/27 09:38:25;;;;;;;5.78;3.33;;;5.90;99.90;;;;;;5046188;28;20088;-47
2023/11/27 09:40:52;;;;;;;4.97;3.10;;;5.80;99.90;;;;;;5046636;28;20028;-49
2023/11/27 09:43:17;;;;;;;4.22;3.30;;;5.80;99.90;;;;;;5046094;28;20033;-51
2023/11/27 09:45:43;;;;;;;3.80;3.08;;;5.80;99.90;;;;;;5045915;28;20026;-48
2023/11/27 09:48:10;;;;;;;3.50;2.75;;;5.90;99.90;;;;;;5045826;28;20032;-48
2023/11/27 09:50:37;;;;;;;4.80;2.90;;;5.90;99.90;;;;;;5045926;28;20022;-51
2023/11/27 09:53:08;;;;;;;3.88;3.17;;;5.80;99.90;;;;;;5046056;28;20565;-52
2023/11/27 09:55:34;;;;;;;5.20;3.20;;;5.80;99.90;;;;;;5046350;28;20030;-53
2023/11/27 09:58:01;;;;;;;5.32;3.10;;;5.80;99.90;;;;;;5045967;28;20056;-50
2023/11/27 10:00:29;;;;;;;3.58;2.88;;;5.80;99.90;;;;;;5046138;28;20083;-52
2023/11/27 10:02:55;;;;;;;6.30;2.92;;;5.90;99.90;;;;;;5046003;28;20404;-49
2023/11/27 10:05:21;;;;;;;3.97;3.45;;;5.90;99.90;;;;;;5046018;28;20138;-62
2023/11/27 10:07:51;;;;;;;3.75;2.83;;;5.90;99.90;;;;;;5045851;28;20044;-52
2023/11/27 10:10:20;;;;;;;4.90;3.53;;;5.90;99.90;;;;;;5046120;28;20036;-52
2023/11/27 10:12:46;;;;;;;4.90;3.72;;;5.90;99.90;;;;;;5044311;28;20022;-53
2023/11/27 10:15:15;;;;;;;4.53;3.20;;;6.00;99.90;;;;;;5045898;28;20071;-49
2023/11/27 10:17:45;;;;;;;5.80;3.78;;;6.00;99.90;;;;;;5045859;28;20510;-50
2023/11/27 10:20:14;;;;;;;4.57;3.38;;;6.00;99.90;;;;;;5045975;28;20042;-49
2023/11/27 10:22:42;;;;;;;4.13;3.15;;;6.00;99.90;;;;;;5045611;28;20026;-49
2023/11/27 10:25:13;;;;;;;6.03;3.53;;;6.10;99.90;;;;;;5045805;28;20442;-47
2023/11/27 10:27:46;;;;;;;4.85;3.15;;;6.10;99.90;;;;;;5045864;28;20028;-49
2023/11/27 10:30:19;;;;;;;3.42;3.00;;;6.10;99.90;;;;;;5027949;28;20164;-51
2023/11/27 10:32:48;;;;;;;3.72;3.28;;;6.10;99.90;;;;;;5045609;28;20438;-51
2023/11/27 10:35:17;;;;;;;3.80;3.17;;;6.10;99.90;;;;;;5045485;28;20025;-52
2023/11/27 10:38:03;;;;;;;3.63;3.03;;;6.10;99.90;;;;;;5044143;28;20364;-50
2023/11/27 10:40:29;;;;;;;3.92;3.20;;;6.20;99.90;;;;;;5045425;28;20040;-50
2023/11/27 10:43:00;;;;;;;4.10;3.40;;;6.20;99.90;;;;;;5047966;28;20021;-51
2023/11/27 10:45:27;;;;;;;5.00;3.40;;;6.20;99.90;;;;;;5049728;28;20104;-48
2023/11/27 10:47:53;;;;;;;3.83;3.10;;;6.30;99.90;;;;;;5049558;28;20049;-48
2023/11/27 10:50:19;;;;;;;4.55;3.10;;;6.30;99.90;;;;;;5048026;28;20028;-47
2023/11/27 10:52:49;;;;;;;3.63;2.97;;;6.30;99.90;;;;;;5049107;28;20060;-51
2023/11/27 10:55:19;;;;;;;7.30;3.42;;;6.30;99.90;;;;;;5049260;28;20049;-53
2023/11/27 10:57:49;;;;;;;4.13;2.92;;;6.40;99.90;;;;;;5049526;28;20029;-50
2023/11/27 11:00:29;;;;;;;4.07;3.30;;;6.40;99.90;;;;;;5049141;28;20041;-52
2023/11/27 11:03:00;;;;;;;3.83;3.17;;;6.40;99.90;;;;;;5049052;28;20096;-49
2023/11/27 11:05:33;;;;;;;4.03;3.03;;;6.40;99.90;;;;;;5049381;28;20430;-47
2023/11/27 11:08:00;;;;;;;4.15;3.28;;;6.40;99.90;;;;;;5049043;28;20089;-50
2023/11/27 11:10:26;;;;;;;3.03;2.67;;;6.50;99.90;;;;;;5049009;28;20483;-52
2023/11/27 11:12:54;;;;;;;4.28;3.05;;;6.40;99.90;;;;;;5049103;28;20022;-48
2023/11/27 11:15:41;;;;;;;4.82;2.92;;;6.40;99.90;;;;;;5049492;28;20021;-52
2023/11/27 11:18:43;;;;;;;5.95;3.08;;;6.40;99.90;;;;;;5048695;28;20050;-51
2023/11/27 11:21:50;;;;;;;4.32;3.17;;;6.40;99.90;;;;;;5049217;28;20048;-52
2023/11/27 11:24:40;;;;;;;2.83;2.53;;;6.40;99.90;;;;;;5048405;28;20022;-49
2023/11/27 11:27:19;;;;;;;3.45;2.50;;;6.50;99.90;;;;;;5048854;28;20025;-46
2023/11/27 11:29:46;;;;;;;5.88;3.25;;;6.50;99.90;;;;;;5049020;28;20037;-52
2023/11/27 11:32:16;;;;;;;7.70;3.20;;;6.60;99.90;;;;;;5048924;28;20028;-46
2023/11/27 11:34:43;;;;;;;3.47;3.05;;;6.50;99.90;;;;;;5048514;28;20467;-52
2023/11/27 11:37:15;;;;;;;3.47;2.70;;;6.60;99.90;;;;;;5048481;28;20032;-50
2023/11/27 11:39:53;;;;;;;2.95;2.40;;;6.60;99.90;;;;;;5048946;28;20029;-50
2023/11/27 11:42:25;;;;;;;2.90;2.33;;;6.60;99.90;;;;;;5048785;28;20363;-38
2023/11/27 11:45:17;;;;;;;2.47;2.00;;;6.60;99.90;;;;;;5047182;28;20096;-38
2023/11/27 11:47:51;;;;;;;2.15;1.95;;;6.60;99.90;;;;;;5048696;28;20029;-37
2023/11/27 11:50:42;;;;;;;2.47;2.20;;;6.60;99.90;;;;;;5048652;28;20029;-34
2023/11/27 11:53:13;;;;;;;2.80;1.85;;;6.60;99.90;;;;;;5047690;28;20060;-39
2023/11/27 11:55:39;;;;;;;2.53;2.20;;;6.50;99.90;;;;;;5048099;28;20022;-36
2023/11/27 11:58:29;;;;;;;2.83;1.85;;;6.60;99.90;;;;;;5046997;28;20026;-36
2023/11/27 12:01:01;;;;;;;3.38;2.25;;;6.70;99.90;;;;;;5048430;28;20029;-36
2023/11/27 12:03:31;;;;;;;4.95;2.63;;;6.60;99.90;;;;;;5048071;28;20060;-37
2023/11/27 12:06:02;;;;;;;3.83;2.55;;;6.70;99.90;;;;;;5048275;28;20041;-36
2023/11/27 12:08:29;;;;;;;4.20;2.65;;;6.60;99.90;;;;;;5048003;28;20036;-37
2023/11/27 12:10:56;;;;;;;3.67;2.80;;;6.60;99.90;;;;;;5048204;28;20029;-37
2023/11/27 12:13:23;;;;;;;3.80;2.97;;;6.60;99.90;;;;;;5047175;28;20268;-37
2023/11/27 12:15:51;;;;;;;2.58;1.98;;;6.70;99.90;;;;;;5048108;28;20025;-37
2023/11/27 12:18:19;;;;;;;8.03;2.13;;;6.70;99.90;;;;;;5047883;28;20052;-38
2023/11/27 12:20:47;;;;;;;2.10;1.90;;;6.70;99.90;;;;;;5047927;28;20303;-38
2023/11/27 12:23:13;;;;;;;4.13;2.30;;;6.80;99.90;;;;;;5047784;28;20033;-36
2023/11/27 12:25:42;;;;;;;3.22;1.90;;;6.80;99.90;;;;;;5047955;28;20036;-37
2023/11/27 12:28:12;;;;;;;1.77;1.67;;;6.80;99.90;;;;;;5046514;28;20030;-37
2023/11/27 12:30:39;;;;;;;2.22;2.03;;;6.80;99.90;;;;;;5047414;28;20021;-36
2023/11/27 12:33:07;;;;;;;2.78;2.03;;;6.80;99.90;;;;;;5047190;28;20036;-36
2023/11/27 12:35:34;;;;;;;2.13;1.73;;;6.80;99.90;;;;;;5047063;28;20040;-38
2023/11/27 12:38:05;;;;;;;2.75;2.15;;;6.90;99.90;;;;;;5047396;28;20029;-37
2023/11/27 12:40:33;;;;;;;3.28;2.33;;;6.90;99.90;;;;;;5047129;28;20033;-39
2023/11/27 12:43:00;;;;;;;2.33;1.95;;;6.90;99.90;;;;;;5047099;28;20549;-37
2023/11/27 12:45:27;;;;;;;2.65;2.25;;;6.90;99.90;;;;;;5046635;28;20040;-38
2023/11/27 12:47:55;;;;;;;2.20;1.50;;;6.90;99.90;;;;;;5047243;28;20357;-37
2023/11/27 12:50:29;;;;;;;2.95;2.40;;;6.80;99.90;;;;;;5047024;28;20552;-36
2023/11/27 12:53:09;;;;;;;2.83;2.08;;;6.80;99.90;;;;;;5046725;28;20022;-38
2023/11/27 12:55:38;;;;;;;3.25;2.47;;;6.80;99.90;;;;;;5047027;28;20021;-38